Time;durP1;ratioP1;P1;durP2;ratioP2;P2;SDS_P1;SDS_P2;PMS_P1;PMS_P2;Temp;Humidity;BMP_temperature;BMP_pressure;BME280_temperature;BME280_humidity;BME280_pressure;Samples;Min_cycle;Max_cycle;Signal;HPM_P1;HPM_P2
2022/02/17 00:01:39;;;;;;;25.52;3.88;;;;;;;10.44;92.30;99386.81;5002209;28;20033;-83
2022/02/17 00:04:04;;;;;;;37.50;5.40;;;;;;;10.42;91.84;99440.19;5017574;28;20069;-83
2022/02/17 00:06:29;;;;;;;27.95;4.32;;;;;;;10.40;91.39;99401.03;5001830;28;20044;-83
2022/02/17 00:08:55;;;;;;;35.08;6.15;;;;;;;10.37;90.87;99369.81;5037216;28;20412;-83
2022/02/17 00:11:20;;;;;;;25.83;4.13;;;;;;;10.30;90.97;99390.25;5037263;28;20043;-83
2022/02/17 00:13:45;;;;;;;24.95;5.30;;;;;;;10.33;90.62;99399.72;5036658;28;20033;-83
2022/02/17 00:16:11;;;;;;;27.60;4.72;;;;;;;10.29;90.77;99380.72;5038237;28;20356;-83
2022/02/17 00:18:36;;;;;;;36.42;6.13;;;;;;;10.27;90.48;99397.47;5003999;28;20341;-83
2022/02/17 00:21:02;;;;;;;31.20;5.40;;;;;;;10.24;90.94;99397.66;5020737;28;20068;-83
2022/02/17 00:23:27;;;;;;;30.58;5.65;;;;;;;10.28;90.97;99430.56;4988190;28;20072;-83
2022/02/17 00:25:54;;;;;;;31.42;5.45;;;;;;;10.25;91.56;99430.75;5020022;28;20033;-83
2022/02/17 00:28:20;;;;;;;32.58;4.82;;;;;;;10.25;92.48;99473.44;5036329;28;20363;-84
2022/02/17 00:30:46;;;;;;;27.45;5.53;;;;;;;10.23;93.38;99458.78;5037947;28;20057;-84
2022/02/17 00:33:12;;;;;;;28.70;5.72;;;;;;;10.13;94.26;99448.00;5037825;28;20037;-85
2022/02/17 00:35:37;;;;;;;30.33;5.25;;;;;;;10.07;95.00;99422.25;5019441;28;20026;-86
2022/02/17 00:38:03;;;;;;;36.40;5.15;;;;;;;10.00;95.29;99447.91;5020108;28;20478;-85
2022/02/17 00:40:29;;;;;;;36.38;5.18;;;;;;;9.98;94.50;99494.25;5020483;28;20021;-85
2022/02/17 00:42:54;;;;;;;27.15;5.03;;;;;;;9.94;95.06;99471.84;5038309;28;20029;-85
2022/02/17 00:45:19;;;;;;;25.75;4.53;;;;;;;9.86;94.61;99430.47;5018844;28;20337;-86
2022/02/17 00:47:45;;;;;;;28.80;5.40;;;;;;;9.77;94.33;99465.00;5020735;28;20311;-86
2022/02/17 00:50:11;;;;;;;26.90;4.85;;;;;;;9.75;94.21;99479.91;5020153;28;20059;-85
2022/02/17 00:52:36;;;;;;;41.78;5.43;;;;;;;9.69;94.39;99475.06;5019997;28;20407;-86
2022/02/17 00:55:03;;;;;;;41.65;5.65;;;;;;;9.64;94.14;99462.28;5020399;28;20037;-86
2022/02/17 00:57:28;;;;;;;37.90;5.25;;;;;;;9.63;93.77;99491.13;5038312;28;20329;-86
2022/02/17 00:59:54;;;;;;;37.75;6.50;;;;;;;9.56;93.24;99465.31;5001121;28;20041;-85
2022/02/17 01:02:19;;;;;;;31.98;5.03;;;;;;;9.55;92.49;99522.91;5028572;28;20105;-86
2022/02/17 01:04:44;;;;;;;31.40;4.80;;;;;;;9.51;91.53;99503.94;5004467;28;20044;-85
2022/02/17 01:07:10;;;;;;;32.38;5.38;;;;;;;9.46;91.27;99507.75;5038363;28;20095;-85
2022/02/17 01:09:36;;;;;;;33.25;4.82;;;;;;;9.41;90.96;99514.09;5020489;28;20037;-84
2022/02/17 01:12:01;;;;;;;31.65;4.30;;;;;;;9.39;90.83;99508.09;5035594;28;20290;-85
2022/02/17 01:14:27;;;;;;;26.67;3.67;;;;;;;9.38;90.58;99532.53;5001291;28;20041;-84
2022/02/17 01:16:52;;;;;;;36.42;5.05;;;;;;;9.37;90.31;99515.19;5018327;28;20045;-85
2022/02/17 01:19:18;;;;;;;24.77;3.55;;;;;;;9.40;90.08;99533.31;5037873;28;20110;-85
2022/02/17 01:21:44;;;;;;;29.70;4.47;;;;;;;9.42;88.88;99527.97;5038546;28;20037;-84
2022/02/17 01:24:10;;;;;;;26.23;3.85;;;;;;;9.41;89.25;99542.81;5038006;28;20104;-85
2022/02/17 01:26:35;;;;;;;28.73;4.32;;;;;;;9.43;88.89;99552.38;5037777;28;20399;-85
2022/02/17 01:29:00;;;;;;;27.08;3.53;;;;;;;9.46;87.71;99552.16;5037567;28;20041;-84
2022/02/17 01:31:26;;;;;;;19.38;3.47;;;;;;;9.46;87.04;99560.88;5003558;28;20059;-84
2022/02/17 01:33:51;;;;;;;24.40;3.97;;;;;;;9.46;86.84;99544.34;5003712;28;20082;-84
2022/02/17 01:36:17;;;;;;;28.50;4.57;;;;;;;9.49;85.60;99588.59;5020384;28;20037;-84
2022/02/17 01:38:44;;;;;;;29.90;4.35;;;;;;;9.46;84.97;99560.88;5037854;28;20063;-84
2022/02/17 01:41:10;;;;;;;20.75;3.67;;;;;;;9.38;83.87;99571.72;5018177;28;20046;-84
2022/02/17 01:43:36;;;;;;;17.45;2.88;;;;;;;9.35;82.69;99577.16;5025389;28;20029;-84
2022/02/17 01:46:01;;;;;;;23.40;4.50;;;;;;;9.33;83.00;99602.53;5037200;28;20090;-84
2022/02/17 01:48:28;;;;;;;30.58;4.65;;;;;;;9.34;81.72;99582.47;5037809;28;20047;-83
2022/02/17 01:50:53;;;;;;;27.50;4.18;;;;;;;9.35;81.71;99598.06;5037560;28;20352;-84
2022/02/17 01:53:20;;;;;;;25.98;3.83;;;;;;;9.34;81.95;99617.25;5019470;28;20072;-84
2022/02/17 01:55:49;;;;;;;18.08;3.50;;;;;;;9.32;82.43;99589.53;5020166;28;20057;-84
2022/02/17 01:58:15;;;;;;;26.77;3.55;;;;;;;9.29;83.16;99652.41;5037615;28;20387;-84
2022/02/17 02:04:04;;;;;;;24.92;2.90;;;;;;;9.26;84.06;99619.47;5020950;28;20048;-83
2022/02/17 02:06:29;;;;;;;25.65;3.35;;;;;;;9.25;84.22;99653.50;5047741;28;20037;-83
2022/02/17 02:08:55;;;;;;;22.80;3.47;;;;;;;9.23;84.07;99672.72;5004199;28;20072;-83
2022/02/17 02:11:21;;;;;;;29.13;5.25;;;;;;;9.22;83.67;99647.53;5005504;28;20041;-83
2022/02/17 02:13:46;;;;;;;24.77;3.65;;;;;;;9.18;83.08;99660.81;5038084;28;20320;-83
2022/02/17 02:16:12;;;;;;;25.08;3.70;;;;;;;9.15;83.38;99669.69;5037321;28;20340;-84
2022/02/17 02:18:37;;;;;;;26.13;5.07;;;;;;;9.13;83.38;99640.19;5037248;28;20049;-83
2022/02/17 02:21:03;;;;;;;25.02;3.63;;;;;;;9.13;82.63;99655.88;5037172;28;20037;-83
2022/02/17 02:23:31;;;;;;;26.90;4.30;;;;;;;9.09;81.97;99654.31;5019455;28;20083;-83
2022/02/17 02:25:56;;;;;;;31.67;4.25;;;;;;;9.06;81.40;99662.34;5036772;28;20104;-84
2022/02/17 02:28:24;;;;;;;24.08;3.70;;;;;;;9.05;81.32;99710.25;5037005;28;20280;-83
2022/02/17 02:30:50;;;;;;;22.70;4.15;;;;;;;9.05;81.35;99689.38;5036817;28;20039;-83
2022/02/17 02:33:17;;;;;;;29.02;4.32;;;;;;;8.97;80.71;99671.50;5053318;28;20213;-84
2022/02/17 02:35:43;;;;;;;20.92;3.92;;;;;;;8.98;79.83;99699.28;5054602;28;20187;-83
2022/02/17 02:38:09;;;;;;;24.25;3.75;;;;;;;8.92;79.78;99715.28;5036273;28;20049;-84
2022/02/17 02:40:34;;;;;;;20.27;3.92;;;;;;;8.90;79.16;99737.19;5019198;28;20033;-83
2022/02/17 02:43:00;;;;;;;27.60;4.05;;;;;;;8.90;79.68;99740.63;5019564;28;20378;-84
2022/02/17 02:45:26;;;;;;;24.90;4.70;;;;;;;8.82;79.58;99742.75;5037189;28;20041;-84
2022/02/17 02:47:51;;;;;;;26.98;3.40;;;;;;;8.81;79.39;99778.47;5037270;28;20048;-83
2022/02/17 02:50:17;;;;;;;25.73;4.03;;;;;;;8.79;78.88;99741.16;5037129;28;20037;-84
2022/02/17 02:52:42;;;;;;;26.52;4.45;;;;;;;8.79;78.17;99741.16;5037252;28;20245;-83
2022/02/17 02:55:08;;;;;;;24.17;4.43;;;;;;;8.79;76.79;99727.28;5036942;28;20098;-84
2022/02/17 02:57:33;;;;;;;19.05;3.20;;;;;;;8.83;75.60;99754.91;5019605;28;20370;-83
2022/02/17 02:59:59;;;;;;;18.70;2.78;;;;;;;8.82;76.34;99768.88;5019318;28;20113;-84
2022/02/17 03:02:24;;;;;;;21.58;3.85;;;;;;;8.77;76.09;99784.78;5019367;28;20341;-83
2022/02/17 03:04:50;;;;;;;23.23;4.30;;;;;;;8.78;75.92;99775.19;5036933;28;20111;-83
2022/02/17 03:07:15;;;;;;;21.58;3.92;;;;;;;8.74;76.41;99768.44;5037136;28;20128;-83
2022/02/17 03:09:40;;;;;;;25.80;3.75;;;;;;;8.71;76.31;99779.84;5021392;28;20060;-83
2022/02/17 03:12:06;;;;;;;26.60;4.05;;;;;;;8.70;76.70;99811.28;5041095;28;20070;-83
2022/02/17 03:14:32;;;;;;;22.83;3.75;;;;;;;8.68;76.24;99787.84;5040911;28;20025;-84
2022/02/17 03:16:57;;;;;;;25.92;3.35;;;;;;;8.65;76.69;99783.63;5023098;28;20064;-83
2022/02/17 03:19:22;;;;;;;21.20;3.58;;;;;;;8.65;76.97;99773.16;5006737;28;20281;-84
2022/02/17 03:21:48;;;;;;;22.85;3.53;;;;;;;8.63;77.10;99811.56;5040778;28;20037;-84
2022/02/17 03:24:13;;;;;;;19.80;3.25;;;;;;;8.65;76.95;99827.97;5041781;28;20033;-83
2022/02/17 03:26:39;;;;;;;24.80;4.85;;;;;;;8.64;77.09;99809.78;5036119;28;20037;-84
2022/02/17 03:29:04;;;;;;;26.80;3.65;;;;;;;8.61;77.81;99794.28;5040523;28;20218;-84
2022/02/17 03:31:30;;;;;;;19.52;3.42;;;;;;;8.56;78.52;99794.50;5022190;28;20037;-84
2022/02/17 03:33:56;;;;;;;27.90;3.95;;;;;;;8.56;79.13;99814.56;5022328;28;20341;-84
2022/02/17 03:36:21;;;;;;;24.55;4.20;;;;;;;8.56;79.93;99802.34;5040086;28;20036;-84
2022/02/17 03:38:47;;;;;;;24.08;4.20;;;;;;;8.59;79.55;99803.97;5022508;28;20017;-84
2022/02/17 03:41:12;;;;;;;28.50;4.72;;;;;;;8.61;79.91;99825.63;5022761;28;20356;-83
2022/02/17 03:43:38;;;;;;;23.30;3.78;;;;;;;8.62;80.03;99854.25;5020852;28;20083;-82
2022/02/17 03:46:03;;;;;;;23.17;4.63;;;;;;;8.65;79.63;99837.59;5039423;28;20106;-82
2022/02/17 03:48:28;;;;;;;27.40;4.53;;;;;;;8.67;79.33;99812.25;5040080;28;20087;-82
2022/02/17 03:50:54;;;;;;;28.17;4.45;;;;;;;8.65;79.50;99837.59;5022073;28;20029;-82
2022/02/17 03:53:19;;;;;;;30.20;5.35;;;;;;;8.63;79.62;99836.81;5005811;28;20112;-82
2022/02/17 03:55:44;;;;;;;32.35;5.00;;;;;;;8.61;79.83;99844.72;5022262;28;20045;-82
2022/02/17 03:59:00;;;;;;;34.40;6.07;;;;;;;8.59;80.25;99856.16;5022050;28;20025;-82
2022/02/17 04:00:56;;;;;;;35.17;5.03;;;;;;;8.58;79.95;99896.22;5039006;28;20041;-82
2022/02/17 04:03:21;;;;;;;23.10;4.10;;;;;;;8.57;79.92;99890.16;5039885;28;20214;-82
2022/02/17 04:05:47;;;;;;;31.90;4.85;;;;;;;8.58;79.40;99912.72;5021915;28;20087;-82
2022/02/17 04:08:14;;;;;;;27.38;3.78;;;;;;;8.57;78.91;99905.81;5003440;28;20045;-82
2022/02/17 04:10:39;;;;;;;29.00;5.22;;;;;;;8.55;78.90;99899.84;5039506;28;20068;-82
2022/02/17 04:13:04;;;;;;;33.38;4.78;;;;;;;8.52;79.08;99917.41;5039205;28;20072;-82
2022/02/17 04:15:30;;;;;;;23.27;4.22;;;;;;;8.51;78.50;99924.34;5039619;28;20097;-82
2022/02/17 04:17:55;;;;;;;26.60;4.57;;;;;;;8.49;78.95;99910.53;5039225;28;20041;-82
2022/02/17 04:20:20;;;;;;;35.13;4.97;;;;;;;8.48;79.66;99944.53;5020497;28;20045;-82
2022/02/17 04:22:46;;;;;;;40.58;5.90;;;;;;;8.50;80.49;99948.78;5020208;28;20044;-82
2022/02/17 04:25:11;;;;;;;28.33;5.78;;;;;;;8.48;81.03;99941.91;5021217;28;20041;-81
2022/02/17 04:27:37;;;;;;;42.15;6.25;;;;;;;8.49;81.38;99941.03;5021374;28;20083;-82
2022/02/17 04:30:02;;;;;;;41.60;6.97;;;;;;;8.47;81.76;99948.06;5021311;28;20045;-83
2022/02/17 04:32:28;;;;;;;39.03;6.25;;;;;;;8.48;81.44;99970.63;5021384;28;20040;-82
2022/02/17 04:34:53;;;;;;;34.53;6.38;;;;;;;8.45;81.94;99961.19;5041952;28;20029;-82
2022/02/17 04:37:19;;;;;;;47.05;7.28;;;;;;;8.46;81.74;99983.78;5041207;28;20353;-82
2022/02/17 04:39:44;;;;;;;40.95;6.80;;;;;;;8.48;81.78;99981.94;5050022;28;20042;-82
2022/02/17 04:42:18;;;;;;;36.90;6.90;;;;;;;8.46;81.63;99981.16;5004673;28;20341;-82
2022/02/17 04:44:48;;;;;;;35.75;5.70;;;;;;;8.48;81.04;99976.72;5023108;28;20033;-83
2022/02/17 04:47:14;;;;;;;31.40;5.65;;;;;;;8.47;80.83;100003.72;5039190;28;20321;-83
2022/02/17 04:49:39;;;;;;;34.10;5.50;;;;;;;8.52;80.68;100017.41;5039188;28;20057;-83
2022/02/17 04:52:05;;;;;;;37.33;6.10;;;;;;;8.53;80.30;99977.34;5049498;28;20033;-82
2022/02/17 04:54:31;;;;;;;41.10;5.82;;;;;;;8.54;80.54;99976.41;5058545;28;20075;-82
2022/02/17 04:56:56;;;;;;;39.22;6.90;;;;;;;8.53;80.10;99974.75;5040610;28;20057;-83
2022/02/17 04:59:22;;;;;;;33.78;5.80;;;;;;;8.52;80.64;99983.47;5041159;28;20048;-83
2022/02/17 05:01:47;;;;;;;40.45;5.50;;;;;;;8.57;79.75;99993.72;5040788;28;20092;-82
2022/02/17 05:04:13;;;;;;;37.50;5.50;;;;;;;8.58;79.86;100009.28;5041139;28;20227;-82
2022/02/17 05:06:38;;;;;;;36.20;5.55;;;;;;;8.57;79.64;100010.22;5058603;28;20368;-82
2022/02/17 05:09:03;;;;;;;42.75;6.13;;;;;;;8.57;79.96;100012.81;5058451;28;20063;-82
2022/02/17 05:11:29;;;;;;;29.42;5.57;;;;;;;8.54;79.52;100028.63;5040106;28;20093;-82
2022/02/17 05:13:54;;;;;;;30.70;6.13;;;;;;;8.56;78.84;100015.50;5040224;28;20064;-82
2022/02/17 05:16:20;;;;;;;45.55;6.45;;;;;;;8.55;78.82;100060.78;5040942;28;20246;-83
2022/02/17 05:18:45;;;;;;;34.78;4.68;;;;;;;8.57;78.07;100041.53;5059092;28;20275;-83
2022/02/17 05:21:11;;;;;;;36.72;4.90;;;;;;;8.55;78.55;100061.63;5058833;28;20259;-82
2022/02/17 05:23:36;;;;;;;34.22;4.75;;;;;;;8.56;78.05;100058.09;5030730;28;20307;-83
2022/02/17 05:26:02;;;;;;;34.90;5.00;;;;;;;8.52;78.98;100067.00;5020738;28;20144;-82
2022/02/17 05:28:27;;;;;;;27.08;5.22;;;;;;;8.53;78.79;100100.00;5048258;28;20048;-82
2022/02/17 05:30:53;;;;;;;27.10;4.65;;;;;;;8.51;78.51;100103.59;5040741;28;20044;-82
2022/02/17 05:33:18;;;;;;;25.48;4.40;;;;;;;8.54;77.65;100111.28;5057943;28;20047;-82
2022/02/17 05:35:44;;;;;;;25.85;4.40;;;;;;;8.53;77.14;100089.56;5053369;28;20244;-82
2022/02/17 05:38:09;;;;;;;28.17;4.63;;;;;;;8.50;76.56;100109.75;5019914;28;20044;-82
2022/02/17 05:40:36;;;;;;;22.23;3.83;;;;;;;8.48;76.59;100114.16;5037966;28;20033;-82
2022/02/17 05:43:03;;;;;;;28.75;4.70;;;;;;;8.47;75.60;100133.34;5037859;28;20347;-81
2022/02/17 05:45:29;;;;;;;22.83;4.18;;;;;;;8.47;75.35;100128.13;5036591;28;20037;-82
2022/02/17 05:47:56;;;;;;;25.75;4.50;;;;;;;8.41;74.93;100111.78;5037250;28;20052;-82
2022/02/17 05:50:22;;;;;;;20.27;3.63;;;;;;;8.41;74.95;100153.53;5037968;28;20039;-82
2022/02/17 05:52:48;;;;;;;23.60;3.65;;;;;;;8.39;75.29;100144.09;5037656;28;20044;-82
2022/02/17 05:55:17;;;;;;;22.08;3.65;;;;;;;8.35;75.22;100177.28;5020316;28;20328;-82
2022/02/17 05:57:43;;;;;;;17.27;3.53;;;;;;;8.34;74.64;100148.66;5020019;28;20229;-83
2022/02/17 06:00:10;;;;;;;23.30;3.30;;;;;;;8.31;74.39;100152.22;5038131;28;20063;-82
2022/02/17 06:02:35;;;;;;;22.27;3.63;;;;;;;8.30;74.42;100155.75;5036626;28;20076;-82
2022/02/17 06:05:00;;;;;;;18.98;3.17;;;;;;;8.24;74.38;100154.25;5019714;28;20209;-82
2022/02/17 06:07:26;;;;;;;16.40;2.65;;;;;;;8.25;74.26;100192.47;4999993;28;20112;-82
2022/02/17 06:09:51;;;;;;;16.92;3.15;;;;;;;8.26;73.78;100180.28;5016279;28;20171;-81
2022/02/17 06:12:16;;;;;;;18.33;3.20;;;;;;;8.26;73.78;100185.50;5024061;28;20041;-82
2022/02/17 06:14:42;;;;;;;17.92;3.22;;;;;;;8.24;74.22;100187.28;5019187;28;20048;-82
2022/02/17 06:17:07;;;;;;;19.23;2.60;;;;;;;8.19;74.12;100178.84;5053862;28;20045;-82
2022/02/17 06:19:33;;;;;;;13.70;2.83;;;;;;;8.17;73.61;100209.34;5056236;28;20021;-82
2022/02/17 06:21:58;;;;;;;9.82;2.47;;;;;;;8.15;73.47;100211.16;5037705;28;20041;-82
2022/02/17 06:24:24;;;;;;;18.52;2.72;;;;;;;8.13;73.85;100220.81;5019812;28;20029;-82
2022/02/17 06:26:49;;;;;;;16.33;2.47;;;;;;;8.11;74.10;100223.47;5019630;28;20099;-82
2022/02/17 06:29:15;;;;;;;17.55;2.72;;;;;;;8.13;72.94;100245.16;5036835;28;20056;-82
2022/02/17 06:31:40;;;;;;;11.82;2.10;;;;;;;8.11;73.23;100236.50;5035958;28;20387;-82
2022/02/17 06:34:06;;;;;;;18.35;3.15;;;;;;;8.09;73.44;100259.19;5034911;28;20037;-82
2022/02/17 06:36:31;;;;;;;15.13;2.42;;;;;;;8.06;73.19;100241.09;5003340;28;20057;-82
2022/02/17 06:38:57;;;;;;;15.82;2.90;;;;;;;8.03;73.52;100260.28;5034367;28;20060;-82
2022/02/17 06:41:23;;;;;;;9.35;2.25;;;;;;;8.01;73.92;100256.91;5035553;28;20044;-82
2022/02/17 06:43:49;;;;;;;12.25;2.83;;;;;;;7.99;72.45;100281.34;5017728;28;20116;-82
2022/02/17 06:46:15;;;;;;;11.50;2.10;;;;;;;8.00;71.73;100278.66;5038987;28;20223;-82
2022/02/17 06:48:41;;;;;;;19.33;3.00;;;;;;;7.98;72.27;100262.22;5039498;28;20049;-82
2022/02/17 06:51:06;;;;;;;15.40;2.10;;;;;;;7.94;72.78;100288.50;5040109;28;20416;-83
2022/02/17 06:53:32;;;;;;;16.13;3.40;;;;;;;7.94;73.39;100286.72;5021880;28;20325;-82
2022/02/17 06:55:58;;;;;;;22.30;3.38;;;;;;;7.88;74.29;100313.88;5022085;28;20060;-82
2022/02/17 06:58:24;;;;;;;21.05;4.22;;;;;;;7.91;74.49;100305.09;5040600;28;20045;-82
2022/02/17 07:00:49;;;;;;;24.38;3.65;;;;;;;7.87;75.15;100304.34;5022602;28;20043;-82
2022/02/17 07:03:15;;;;;;;24.33;3.55;;;;;;;7.87;75.66;100330.44;5021883;28;20114;-82
2022/02/17 07:05:40;;;;;;;19.88;2.72;;;;;;;7.88;74.48;100321.72;5040020;28;20337;-82
2022/02/17 07:08:06;;;;;;;19.13;3.38;;;;;;;7.84;74.17;100314.91;5040127;28;20045;-82
2022/02/17 07:13:16;;;;;;;22.33;3.10;;;;;;;7.79;74.39;100345.53;5037986;28;20041;-82
2022/02/17 07:15:43;;;;;;;13.88;2.72;;;;;;;7.76;74.32;100353.44;5035148;28;20013;-83
2022/02/17 07:18:09;;;;;;;13.73;2.72;;;;;;;7.79;74.62;100340.31;5053614;28;20025;-82
2022/02/17 07:20:42;;;;;;;16.90;3.25;;;;;;;7.75;73.89;100367.41;5052393;28;20041;-82
2022/02/17 07:23:07;;;;;;;19.20;3.38;;;;;;;7.73;73.84;100386.59;5053127;28;20073;-82
2022/02/17 07:25:33;;;;;;;18.17;2.45;;;;;;;7.73;74.03;100373.56;5032190;28;20032;-82
2022/02/17 07:27:58;;;;;;;21.45;3.47;;;;;;;7.68;73.71;100376.34;5026136;28;20029;-82
2022/02/17 07:30:24;;;;;;;11.75;2.42;;;;;;;7.69;74.86;100424.94;5033312;28;20029;-82
2022/02/17 07:32:49;;;;;;;11.68;2.47;;;;;;;7.65;73.77;100392.94;5028887;28;20362;-81
2022/02/17 07:35:15;;;;;;;15.00;2.60;;;;;;;7.66;73.91;100401.63;5051741;28;20029;-82
2022/02/17 07:37:40;;;;;;;15.43;2.35;;;;;;;7.64;74.03;100411.22;5035057;28;20025;-82
2022/02/17 07:40:08;;;;;;;12.40;2.13;;;;;;;7.68;73.71;100418.06;5052093;28;20166;-82
2022/02/17 07:42:34;;;;;;;20.17;2.90;;;;;;;7.67;73.44;100426.75;5040237;28;20267;-82
2022/02/17 07:45:00;;;;;;;15.00;1.92;;;;;;;7.66;74.40;100415.50;5023315;28;20029;-82
2022/02/17 07:47:26;;;;;;;15.60;3.28;;;;;;;7.63;74.74;100453.84;5021895;28;20075;-82
2022/02/17 07:49:56;;;;;;;11.80;2.78;;;;;;;7.65;74.57;100452.88;5012180;28;20117;-82
2022/02/17 07:52:21;;;;;;;12.32;2.50;;;;;;;7.64;74.05;100463.34;5036847;28;20415;-82
2022/02/17 07:54:47;;;;;;;16.20;2.53;;;;;;;7.64;73.40;100437.28;5038634;28;20107;-83
2022/02/17 07:57:12;;;;;;;8.18;1.73;;;;;;;7.60;72.28;100428.72;5038909;28;20267;-82
2022/02/17 07:59:37;;;;;;;9.05;2.13;;;;;;;7.61;72.11;100443.47;5039125;28;20041;-83
2022/02/17 08:02:03;;;;;;;12.43;1.92;;;;;;;7.62;72.20;100458.22;5020026;28;20217;-82
2022/02/17 08:04:30;;;;;;;8.82;1.90;;;;;;;7.60;71.86;100452.19;5020144;28;20055;-83
2022/02/17 08:06:55;;;;;;;12.57;1.92;;;;;;;7.59;70.85;100460.06;5036470;28;20100;-83
2022/02/17 08:09:21;;;;;;;8.95;1.73;;;;;;;7.56;70.28;100481.84;5037928;28;20057;-82
2022/02/17 08:11:47;;;;;;;20.85;2.03;;;;;;;7.61;69.83;100515.59;5001569;28;20033;-82
2022/02/17 08:14:12;;;;;;;9.20;1.63;;;;;;;7.63;70.11;100514.63;5019326;28;20052;-81
2022/02/17 08:16:38;;;;;;;16.35;2.70;;;;;;;7.64;70.45;100478.97;5037292;28;20104;-82
2022/02/17 08:19:05;;;;;;;9.70;1.92;;;;;;;7.63;71.33;100490.34;5035888;28;20033;-82
2022/02/17 08:21:31;;;;;;;17.17;2.72;;;;;;;7.63;72.35;100495.53;5038085;28;20330;-82
2022/02/17 08:23:56;;;;;;;14.05;3.10;;;;;;;7.61;71.92;100502.56;5036807;28;20087;-82
2022/02/17 08:26:22;;;;;;;13.18;2.17;;;;;;;7.61;72.32;100526.03;5030321;28;20041;-82
2022/02/17 08:28:48;;;;;;;12.65;2.10;;;;;;;7.64;73.00;100520.69;5035833;28;20037;-82
2022/02/17 08:31:14;;;;;;;10.60;1.80;;;;;;;7.65;71.40;100505.00;5036359;28;20045;-81
2022/02/17 08:33:40;;;;;;;11.90;2.63;;;;;;;7.64;72.36;100545.03;5017677;28;20041;-82
2022/02/17 08:36:05;;;;;;;12.02;2.45;;;;;;;7.68;72.34;100548.38;5019199;28;20130;-82
2022/02/17 08:38:31;;;;;;;13.07;2.33;;;;;;;7.67;72.05;100529.25;5036962;28;20064;-82
2022/02/17 08:40:58;;;;;;;9.98;2.28;;;;;;;7.66;71.83;100539.75;5035268;28;20416;-81
2022/02/17 08:43:24;;;;;;;12.93;2.30;;;;;;;7.65;71.89;100543.25;5040372;28;20037;-82
2022/02/17 08:45:49;;;;;;;15.52;2.40;;;;;;;7.63;71.94;100576.34;5006138;28;20330;-82
2022/02/17 08:48:15;;;;;;;10.32;2.30;;;;;;;7.64;72.39;100550.22;5019739;28;20067;-82
2022/02/17 08:50:43;;;;;;;17.70;1.92;;;;;;;7.64;72.10;100545.03;5036162;28;20052;-82
2022/02/17 08:53:09;;;;;;;18.65;2.58;;;;;;;7.64;71.66;100552.84;5035200;28;20029;-82
2022/02/17 08:55:34;;;;;;;13.02;2.55;;;;;;;7.68;71.72;100561.41;5018026;28;20041;-82
2022/02/17 08:58:00;;;;;;;12.82;3.25;;;;;;;7.69;72.13;100587.44;5018541;28;20032;-82
2022/02/17 09:00:25;;;;;;;11.55;2.30;;;;;;;7.73;71.67;100561.25;5035357;28;20348;-82
2022/02/17 09:02:51;;;;;;;12.30;2.20;;;;;;;7.75;71.93;100567.25;5018574;28;20140;-82
2022/02/17 09:05:16;;;;;;;9.75;1.55;;;;;;;7.76;71.95;100575.03;5002514;28;20021;-81
2022/02/17 09:07:41;;;;;;;12.95;2.75;;;;;;;7.78;72.10;100578.44;5035638;28;20041;-82
2022/02/17 09:10:07;;;;;;;15.55;2.50;;;;;;;7.79;72.02;100563.66;5032095;28;20230;-82
2022/02/17 09:12:34;;;;;;;13.80;2.15;;;;;;;7.82;71.67;100589.59;5030850;28;20225;-82
2022/02/17 09:15:00;;;;;;;13.52;1.83;;;;;;;7.83;70.51;100615.63;5035956;28;20384;-81
2022/02/17 09:17:26;;;;;;;13.23;2.55;;;;;;;7.85;70.16;100610.38;5037336;28;20333;-82
2022/02/17 09:19:51;;;;;;;16.05;2.05;;;;;;;7.84;70.07;100608.66;5035766;28;20033;-82
2022/02/17 09:22:16;;;;;;;10.40;1.60;;;;;;;7.84;70.52;100625.16;5026452;28;20045;-82
2022/02/17 09:24:42;;;;;;;14.48;2.50;;;;;;;7.83;69.66;100626.06;5039941;28;20064;-82
2022/02/17 09:27:07;;;;;;;12.65;2.35;;;;;;;7.84;69.86;100619.09;5034327;28;20084;-82
2022/02/17 09:29:33;;;;;;;9.50;2.33;;;;;;;7.85;69.29;100632.06;5034150;28;20041;-82
2022/02/17 09:31:58;;;;;;;21.95;2.33;;;;;;;7.85;69.69;100608.59;5011955;28;20053;-82
2022/02/17 09:34:25;;;;;;;12.30;1.60;;;;;;;7.86;68.73;100612.94;5017939;28;20044;-81
2022/02/17 09:36:52;;;;;;;15.90;1.77;;;;;;;7.87;69.85;100632.03;5031733;28;20045;-81
2022/02/17 09:39:17;;;;;;;19.23;3.05;;;;;;;7.87;69.63;100634.63;5015821;28;20041;-82
2022/02/17 09:41:43;;;;;;;8.48;1.80;;;;;;;7.85;69.33;100629.47;5033704;28;20044;-82
2022/02/17 09:44:10;;;;;;;10.68;2.25;;;;;;;7.88;70.76;100645.03;5017938;28;20401;-82
2022/02/17 09:46:38;;;;;;;11.57;2.03;;;;;;;7.90;70.11;100663.22;5043828;28;20048;-81
2022/02/17 09:49:04;;;;;;;19.53;3.30;;;;;;;7.90;70.36;100655.41;5028706;28;20037;-82
2022/02/17 09:51:33;;;;;;;16.20;2.58;;;;;;;7.91;70.78;100646.66;5046632;28;20286;-82
2022/02/17 09:54:00;;;;;;;15.25;2.67;;;;;;;7.94;69.95;100658.75;5024259;28;20368;-82
2022/02/17 09:56:25;;;;;;;13.90;2.58;;;;;;;7.93;69.92;100664.88;5033897;28;20052;-82
2022/02/17 09:58:53;;;;;;;10.82;2.25;;;;;;;7.95;70.33;100668.28;5036764;28;20336;-83
2022/02/17 10:01:27;;;;;;;13.35;2.40;;;;;;;7.96;68.65;100694.31;5016911;28;20053;-82
2022/02/17 10:04:15;;;;;;;12.90;2.15;;;;;;;7.98;68.95;100699.47;5018111;28;20029;-82
2022/02/17 10:06:51;;;;;;;11.65;2.72;;;;;;;7.97;68.81;100682.16;5040406;28;20052;-82
2022/02/17 10:09:19;;;;;;;14.88;1.95;;;;;;;7.97;69.32;100700.41;5042241;28;20045;-82
2022/02/17 10:11:46;;;;;;;9.20;1.45;;;;;;;7.98;69.04;100708.16;5042973;28;20025;-82
2022/02/17 10:14:13;;;;;;;10.25;1.42;;;;;;;7.97;69.04;100703.84;5039009;28;20036;-81
2022/02/17 10:16:58;;;;;;;12.07;1.40;;;;;;;8.00;68.54;100729.81;5045277;28;20036;-82
2022/02/17 10:19:27;;;;;;;12.05;2.70;;;;;;;8.03;69.07;100702.81;5036863;28;20448;-82
2022/02/17 10:22:12;;;;;;;9.55;1.85;;;;;;;8.03;68.82;100724.50;5027453;28;20360;-82
2022/02/17 10:24:46;;;;;;;11.05;1.63;;;;;;;8.06;69.00;100713.16;5017304;28;20325;-82
2022/02/17 10:27:23;;;;;;;8.68;1.70;;;;;;;8.09;69.24;100744.31;5035162;28;20332;-81
2022/02/17 10:29:58;;;;;;;12.20;1.50;;;;;;;8.12;68.52;100717.31;5025009;28;20025;-82
2022/02/17 10:32:23;;;;;;;12.40;1.85;;;;;;;8.13;68.87;100729.44;5013207;28;20256;-82
2022/02/17 10:35:06;;;;;;;8.45;1.25;;;;;;;8.16;68.54;100711.91;5016418;28;20041;-82
2022/02/17 10:37:49;;;;;;;6.05;1.50;;;;;;;8.19;69.10;100711.00;5031432;28;20244;-82
2022/02/17 10:40:17;;;;;;;10.07;1.30;;;;;;;8.20;68.99;100736.16;5032971;28;20139;-82
2022/02/17 10:42:42;;;;;;;11.45;1.73;;;;;;;8.21;70.33;100771.78;5035253;28;20263;-82
2022/02/17 10:45:34;;;;;;;16.20;2.13;;;;;;;8.25;70.94;100729.03;5034814;28;20317;-82
2022/02/17 10:48:11;;;;;;;9.13;1.80;;;;;;;8.25;71.29;100750.75;5034363;28;20299;-82
2022/02/17 10:50:37;;;;;;;13.75;2.28;;;;;;;8.29;71.98;100766.31;5045105;28;20033;-82
2022/02/17 10:53:25;;;;;;;15.23;2.10;;;;;;;8.31;71.41;100756.69;5026443;28;20422;-82
2022/02/17 10:56:01;;;;;;;16.38;2.38;;;;;;;8.29;71.48;100784.59;5041528;28;20033;-81
2022/02/17 10:58:29;;;;;;;16.77;2.13;;;;;;;8.29;70.54;100774.16;5024108;28;20372;-82
2022/02/17 11:01:05;;;;;;;7.68;1.55;;;;;;;8.29;70.56;100772.38;5024165;28;20048;-82
2022/02/17 11:03:34;;;;;;;13.13;2.08;;;;;;;8.30;71.46;100776.72;5021528;28;20370;-81
2022/02/17 11:06:01;;;;;;;12.27;1.83;;;;;;;8.31;70.43;100804.50;5040952;28;20101;-82
2022/02/17 11:08:27;;;;;;;10.25;1.55;;;;;;;8.33;70.85;100791.41;5041696;28;20061;-82
2022/02/17 11:10:52;;;;;;;9.77;1.83;;;;;;;8.32;72.09;100767.06;5039801;28;20033;-82
2022/02/17 11:13:19;;;;;;;14.50;2.08;;;;;;;8.34;70.52;100783.53;5015537;28;20044;-82
2022/02/17 11:15:46;;;;;;;15.38;2.00;;;;;;;8.34;70.79;100809.63;5015276;28;20045;-81
2022/02/17 11:18:13;;;;;;;8.38;2.08;;;;;;;8.37;70.81;100795.66;4998982;28;20029;-82
2022/02/17 11:20:39;;;;;;;7.00;1.92;;;;;;;8.37;71.25;100791.28;5033953;28;20128;-81
2022/02/17 11:23:05;;;;;;;10.15;1.52;;;;;;;8.35;70.58;100800.03;5034562;28;20345;-82
2022/02/17 11:25:41;;;;;;;8.15;1.77;;;;;;;8.36;70.25;100801.75;5033729;28;20100;-82
2022/02/17 11:28:10;;;;;;;6.35;1.63;;;;;;;8.37;69.34;100793.03;5015831;28;20032;-82
2022/02/17 11:30:38;;;;;;;11.63;1.75;;;;;;;8.35;70.14;100792.19;5036120;28;20041;-81
2022/02/17 11:33:21;;;;;;;8.15;1.52;;;;;;;8.36;69.76;100794.75;5020466;28;20037;-82